Flight Track Log - Related Links

Times and Time Zones

All times are in EDT time to prevent confusion due to time zone crossing. See the CNS313 flight status page for this flight to view local times or setup timezone preferences in your user account.

Time Position Orientation Groundspeed Altitude Reporting Facility
EDT Latitude Longitude Course Direction KTS MPH feet Rate Location/Type
Wed 05:00:32 PM 33.8667 -84.2667 90° East 135 155 2,600  Level Atlanta TRACON
Wed 05:01:38 PM 33.8667 -84.2167 90° East 153 176 4,100 1,200 Climbing Atlanta TRACON
Wed 05:02:32 PM 33.8667 -84.1667 90° East 160 184 5,000 450 Climbing Atlanta TRACON
Wed 05:03:38 PM 33.8500 -84.1000 107° East 205 236 5,000  Level Atlanta TRACON
Wed 05:04:38 PM 33.8333 -84.0333 107° East 209 241 5,000 645 Level Atlanta TRACON
Wed 05:05:39 PM 33.8333 -83.9667 90° East 190 219 6,300 1,240 Climbing Atlanta TRACON
Wed 05:06:39 PM 33.8000 -83.9167 129° Southeast 171 197 7,500 1,344 Climbing Atlanta TRACON
Wed 05:07:44 PM 33.7878 -83.8589 104° East 176 203 9,100 1,440 Climbing Atlanta Center
Wed 05:08:44 PM 33.7689 -83.8089 114° Southeast 176 203 10,500 950 Climbing Atlanta Center
Wed 05:09:44 PM 33.7500 -83.7589 114° Southeast 170 196 11,000 250 Climbing Atlanta Center
Wed 05:10:44 PM 33.7250 -83.6917 114° Southeast 198 228 11,000  Level Atlanta Center
Wed 05:11:44 PM 33.6975 -83.6219 115° Southeast 219 252 11,000 450 Level Atlanta Center
Wed 05:12:44 PM 33.6681 -83.5544 118° Southeast 230 265 11,900 1,500 Climbing Atlanta Center
Wed 05:13:44 PM 33.6447 -83.4997 117° Southeast 197 227 14,000 1,600 Climbing Atlanta Center
Wed 05:14:44 PM 33.6281 -83.4475 111° Southeast 173 199 15,100 1,050 Climbing Atlanta Center
Wed 05:15:44 PM 33.6067 -83.3903 114° Southeast 168 193 16,100 1,050 Climbing Atlanta Center
Wed 05:16:44 PM 33.5856 -83.3356 115° Southeast 174 200 17,200 1,000 Climbing Atlanta Center
Wed 05:17:44 PM 33.5664 -83.2783 112° Southeast 174 200 18,100 900 Climbing Atlanta Center
Wed 05:18:44 PM 33.5411 -83.2214 118° Southeast 179 206 19,000 450 Climbing Atlanta Center
Wed 05:19:44 PM 33.5114 -83.1519 117° Southeast 207 238 19,000  Level Atlanta Center
Wed 05:20:44 PM 33.4817 -83.0775 116° Southeast 231 266 19,000  Level Atlanta Center
Wed 05:21:44 PM 33.4475 -83.0006 118° Southeast 253 291 19,000  Level Atlanta Center
Wed 05:22:44 PM 33.4197 -82.9214 113° Southeast 253 291 19,000  Level Atlanta Center
Wed 05:23:44 PM 33.3878 -82.8447 117° Southeast 260 299 19,000  Level Atlanta Center
Wed 05:24:44 PM 33.3514 -82.7681 120° Southeast 260 299 19,000  Level Atlanta Center
Wed 05:25:44 PM 33.3172 -82.6914 118° Southeast 260 299 19,000  Level Atlanta Center
Wed 05:26:44 PM 33.2831 -82.6150 118° Southeast 260 299 19,000  Level Atlanta Center
Wed 05:27:44 PM 33.2508 -82.5383 117° Southeast 260 299 19,000  Level Atlanta Center
Wed 05:28:44 PM 33.2164 -82.4619 118° Southeast 260 299 19,000  Level Atlanta Center
Wed 05:29:44 PM 33.1842 -82.3858 117° Southeast 260 299 19,000  Level Atlanta Center
Wed 05:30:44 PM 33.1517 -82.3094 117° Southeast 260 299 19,000  Level Atlanta Center
Wed 05:32:46 PM 33.0892 -82.1611 117° Southeast 264 304 19,000  Level Jacksonville Center
Wed 05:33:46 PM 33.0533 -82.0847 119° Southeast 259 298 19,000  Level Jacksonville Center
Wed 05:34:46 PM 33.0236 -82.0056 114° Southeast 259 298 19,000  Level Jacksonville Center
Wed 05:35:46 PM 32.9894 -81.9317 119° Southeast 259 298 19,000  Level Jacksonville Center
Wed 05:36:46 PM 32.9578 -81.8578 117° Southeast 259 298 19,000 -150 Level Jacksonville Center
Wed 05:37:46 PM 32.9236 -81.7814 118° Southeast 259 298 18,700 -750 Descending Jacksonville Center
Wed 05:38:46 PM 32.8917 -81.7003 115° Southeast 265 305 17,500 -1,200 Descending Jacksonville Center
Wed 05:39:46 PM 32.8678 -81.6164 109° East 265 305 16,300 -1,150 Descending Jacksonville Center
Wed 05:40:46 PM 32.8419 -81.5375 111° Southeast 265 305 15,200 -1,150 Descending Jacksonville Center
Wed 05:41:46 PM 32.8181 -81.4589 110° East 260 299 14,000 -1,150 Descending Jacksonville Center
Wed 05:42:46 PM 32.7922 -81.3828 112° Southeast 249 287 12,900 -1,150 Descending Jacksonville Center
Wed 05:43:46 PM 32.7600 -81.3092 117° Southeast 249 287 11,700 -950 Descending Jacksonville Center
Wed 05:44:46 PM 32.7256 -81.2381 120° Southeast 249 287 11,000 -550 Descending Jacksonville Center
Wed 05:45:46 PM 32.6914 -81.1647 119° Southeast 244 281 10,600 -850 Descending Jacksonville Center
Wed 05:46:46 PM 32.6611 -81.0911 116° Southeast 249 287 9,300 -1,300 Descending Jacksonville Center
Wed 05:47:46 PM 32.6350 -81.0228 114° Southeast 244 281 8,000 -1,450 Descending Jacksonville Center
Wed 05:48:46 PM 32.6067 -80.9419 113° Southeast 240 276 6,400 -1,400 Descending Jacksonville Center
Wed 05:49:46 PM 32.5786 -80.8808 119° Southeast 220 253 5,200 -1,250 Descending Jacksonville Center
Wed 05:50:46 PM 32.5525 -80.8272 120° Southeast 201 231 3,900 -1,350 Descending Jacksonville Center
Wed 05:51:46 PM 32.5347 -80.7636 108° East 194 223 2,500 -1,400 Descending Jacksonville Center
Wed 05:53:00 PM 32.4778 -80.7035 90° East  Level Estimated
Wed 06:00:00 PM 32.4122 -80.6344 125° Southeast  Level Estimated
Wed 06:01:00 PM 32.4122 -80.6344 125° Southeast  Level Estimated

Login

Don't have an account? Register now (free) for customized features, flight alerts, and more!